Time;durP1;ratioP1;P1;durP2;ratioP2;P2;SDS_P1;SDS_P2;PMS_P1;PMS_P2;Temp;Humidity;BMP_temperature;BMP_pressure;BME280_temperature;BME280_humidity;BME280_pressure;Samples;Min_cycle;Max_cycle;Signal;HPM_P1;HPM_P2
2023/12/09 00:01:05;;;;;;;8.60;6.00;;;10.50;99.90;;;;;;5051077;28;20283;-60
2023/12/09 00:03:32;;;;;;;8.30;6.37;;;10.50;99.90;;;;;;5051576;28;20228;-60
2023/12/09 00:05:59;;;;;;;10.43;6.40;;;10.50;99.90;;;;;;5051325;28;20212;-59
2023/12/09 00:08:26;;;;;;;13.53;5.87;;;10.40;99.90;;;;;;5051169;28;20297;-59
2023/12/09 00:10:53;;;;;;;10.43;6.03;;;10.40;99.90;;;;;;5051017;28;20209;-60
2023/12/09 00:13:19;;;;;;;8.53;6.43;;;10.40;99.90;;;;;;5050852;28;20236;-61
2023/12/09 00:15:48;;;;;;;11.40;7.20;;;10.40;99.90;;;;;;5050783;28;20209;-61
2023/12/09 00:18:16;;;;;;;9.17;6.47;;;10.30;99.90;;;;;;5050958;28;20240;-61
2023/12/09 00:20:42;;;;;;;9.60;7.00;;;10.30;99.90;;;;;;5051014;28;20631;-61
2023/12/09 00:23:09;;;;;;;11.10;6.13;;;10.30;99.90;;;;;;5050407;28;20667;-61
2023/12/09 00:25:36;;;;;;;10.60;6.90;;;10.40;99.90;;;;;;5050820;28;20557;-61
2023/12/09 00:28:03;;;;;;;11.13;6.53;;;10.40;99.90;;;;;;5051607;28;20304;-61
2023/12/09 00:30:29;;;;;;;11.47;5.90;;;10.50;99.90;;;;;;5055099;28;20225;-62
2023/12/09 00:32:57;;;;;;;9.17;6.27;;;10.40;99.90;;;;;;5054611;28;20635;-62
2023/12/09 00:35:24;;;;;;;8.83;6.60;;;10.50;99.90;;;;;;5054819;28;20746;-62
2023/12/09 00:37:51;;;;;;;10.67;7.17;;;10.40;99.90;;;;;;5054894;28;20292;-62
2023/12/09 00:40:18;;;;;;;11.33;6.47;;;10.40;99.90;;;;;;5055004;28;20217;-62
2023/12/09 00:42:46;;;;;;;10.00;6.67;;;10.30;99.90;;;;;;5054754;28;20649;-62
2023/12/09 00:45:14;;;;;;;10.07;6.73;;;10.20;99.90;;;;;;5046527;28;20298;-63
2023/12/09 00:47:40;;;;;;;11.87;6.77;;;10.10;99.90;;;;;;5054587;28;20197;-62
2023/12/09 00:50:09;;;;;;;10.30;6.30;;;10.10;99.90;;;;;;5054316;28;20201;-62
2023/12/09 00:52:37;;;;;;;12.03;6.50;;;10.10;99.90;;;;;;5054426;28;20631;-61
2023/12/09 00:55:04;;;;;;;12.40;7.40;;;10.10;99.90;;;;;;5054348;28;20225;-61
2023/12/09 00:57:31;;;;;;;8.80;6.07;;;10.20;99.90;;;;;;5054141;28;20208;-62
2023/12/09 00:59:58;;;;;;;10.67;6.17;;;10.20;99.90;;;;;;5054494;28;20229;-61
2023/12/09 01:02:25;;;;;;;10.43;6.60;;;10.10;99.90;;;;;;5054335;28;20210;-61
2023/12/09 01:04:51;;;;;;;10.03;6.47;;;10.10;99.90;;;;;;5054072;28;20229;-61
2023/12/09 01:07:19;;;;;;;7.90;5.97;;;10.10;99.90;;;;;;5054340;28;20209;-61
2023/12/09 01:09:46;;;;;;;10.87;6.80;;;10.00;99.90;;;;;;5054072;28;20197;-61
2023/12/09 01:12:13;;;;;;;8.87;6.23;;;10.00;99.90;;;;;;5045811;28;20672;-61
2023/12/09 01:14:39;;;;;;;8.43;6.10;;;10.00;99.90;;;;;;5054117;28;20275;-61
2023/12/09 01:17:06;;;;;;;9.73;6.00;;;10.10;99.90;;;;;;5054284;28;20220;-62
2023/12/09 01:19:33;;;;;;;7.60;5.80;;;10.20;99.90;;;;;;5053808;28;20572;-61
2023/12/09 01:22:00;;;;;;;8.27;5.93;;;10.20;99.90;;;;;;5053724;28;20221;-61
2023/12/09 01:24:28;;;;;;;8.37;5.83;;;10.20;99.90;;;;;;5053687;28;20253;-61
2023/12/09 01:26:54;;;;;;;10.33;6.60;;;10.20;99.90;;;;;;5053367;28;20274;-61
2023/12/09 01:29:21;;;;;;;10.97;5.97;;;10.20;99.90;;;;;;5053580;28;20209;-61
2023/12/09 01:31:48;;;;;;;9.70;5.93;;;10.20;99.90;;;;;;5053707;28;20213;-61
2023/12/09 01:34:14;;;;;;;8.57;5.70;;;10.20;99.90;;;;;;5045308;28;20255;-61
2023/12/09 01:36:41;;;;;;;10.27;6.50;;;10.20;99.90;;;;;;5053650;28;20205;-61
2023/12/09 01:39:09;;;;;;;9.63;6.23;;;10.10;99.90;;;;;;5052527;28;20202;-61
2023/12/09 01:41:37;;;;;;;9.37;5.90;;;10.20;99.90;;;;;;5053087;28;20198;-61
2023/12/09 01:44:04;;;;;;;8.50;5.90;;;10.30;99.90;;;;;;5053227;28;20256;-62
2023/12/09 01:46:32;;;;;;;11.33;5.90;;;10.30;99.90;;;;;;5053369;28;20208;-61
2023/12/09 01:48:59;;;;;;;10.73;6.23;;;10.30;99.90;;;;;;5053059;28;20201;-61
2023/12/09 01:51:27;;;;;;;8.73;5.67;;;10.30;99.90;;;;;;5053334;28;20210;-61
2023/12/09 01:53:54;;;;;;;7.83;5.80;;;10.30;99.90;;;;;;5052921;28;20309;-61
2023/12/09 01:56:22;;;;;;;7.23;5.83;;;10.30;99.90;;;;;;5053332;28;20664;-61
2023/12/09 01:58:50;;;;;;;8.77;6.23;;;10.20;99.90;;;;;;5053337;28;20206;-61
2023/12/09 02:01:17;;;;;;;9.03;5.73;;;10.20;99.90;;;;;;5045146;28;20312;-61
2023/12/09 02:03:44;;;;;;;8.60;5.70;;;10.30;99.90;;;;;;5052996;28;20333;-61
2023/12/09 02:06:11;;;;;;;10.23;5.80;;;10.20;99.90;;;;;;5052950;28;20206;-61
2023/12/09 02:08:39;;;;;;;7.80;5.80;;;10.30;99.90;;;;;;5052713;28;20674;-61
2023/12/09 02:11:15;;;;;;;11.03;6.03;;;10.20;99.90;;;;;;5052910;28;20205;-61
2023/12/09 02:13:55;;;;;;;8.30;5.43;;;10.20;99.90;;;;;;5052923;28;20225;-61
2023/12/09 02:16:28;;;;;;;11.37;5.70;;;10.20;99.90;;;;;;5045636;28;20197;-62
2023/12/09 02:18:57;;;;;;;7.60;4.80;;;10.00;99.90;;;;;;5052529;28;20213;-63
2023/12/09 02:21:24;;;;;;;6.30;4.23;;;10.00;99.90;;;;;;5052823;28;20634;-61
2023/12/09 02:23:53;;;;;;;7.37;4.23;;;10.00;99.90;;;;;;5052458;28;20231;-61
2023/12/09 02:26:27;;;;;;;7.03;4.10;;;10.00;99.90;;;;;;5052719;28;20197;-61
2023/12/09 02:29:01;;;;;;;7.30;5.03;;;10.00;99.90;;;;;;5052326;28;20205;-61
2023/12/09 02:31:31;;;;;;;8.00;5.13;;;10.00;99.90;;;;;;5052347;28;20259;-61
2023/12/09 02:34:00;;;;;;;9.80;5.20;;;10.00;99.90;;;;;;5052502;28;20257;-61
2023/12/09 02:36:29;;;;;;;7.90;5.60;;;9.90;99.90;;;;;;5052482;28;20213;-61
2023/12/09 02:38:58;;;;;;;8.63;5.77;;;9.80;99.90;;;;;;5052149;28;20236;-61
2023/12/09 02:41:27;;;;;;;8.67;5.70;;;9.80;99.90;;;;;;5052209;28;20222;-61
2023/12/09 02:43:55;;;;;;;8.40;5.73;;;9.90;99.90;;;;;;5051933;28;20233;-61
2023/12/09 02:46:22;;;;;;;8.97;5.53;;;9.90;99.90;;;;;;5052200;28;20690;-61
2023/12/09 02:48:49;;;;;;;7.77;4.83;;;10.00;99.90;;;;;;5051974;28;20695;-61
2023/12/09 02:51:15;;;;;;;6.43;4.67;;;10.00;99.90;;;;;;5043653;28;20738;-61
2023/12/09 02:53:43;;;;;;;6.40;5.07;;;10.00;99.90;;;;;;5052054;28;20225;-61
2023/12/09 02:56:11;;;;;;;7.33;4.67;;;10.10;99.90;;;;;;5051995;28;20221;-62
2023/12/09 02:58:38;;;;;;;7.93;5.17;;;10.10;99.90;;;;;;5051690;28;20216;-61
2023/12/09 03:01:05;;;;;;;9.60;6.27;;;10.00;99.90;;;;;;5051756;28;20599;-61
2023/12/09 03:03:31;;;;;;;8.93;5.57;;;10.10;99.90;;;;;;5051861;28;20225;-61
2023/12/09 03:05:58;;;;;;;7.10;5.57;;;10.00;99.90;;;;;;5051795;28;20625;-62
2023/12/09 03:08:25;;;;;;;8.47;4.87;;;10.10;99.90;;;;;;5051607;28;20674;-61
2023/12/09 03:10:51;;;;;;;9.90;5.37;;;10.20;99.90;;;;;;5052042;28;20205;-63
2023/12/09 03:13:20;;;;;;;8.17;5.73;;;10.10;99.90;;;;;;5051820;28;20205;-61
2023/12/09 03:15:46;;;;;;;10.23;5.07;;;10.20;99.90;;;;;;5051884;28;20197;-61
2023/12/09 03:18:13;;;;;;;8.97;5.37;;;10.20;99.90;;;;;;5051564;28;20205;-62
2023/12/09 03:20:39;;;;;;;9.47;5.80;;;10.20;99.90;;;;;;5051392;28;20232;-61
2023/12/09 03:23:06;;;;;;;7.77;5.23;;;10.20;99.90;;;;;;5051191;28;20938;-62
2023/12/09 03:25:33;;;;;;;6.47;5.20;;;10.20;99.90;;;;;;5051496;28;20213;-62
2023/12/09 03:28:00;;;;;;;7.83;4.43;;;10.20;99.90;;;;;;5051193;28;20677;-61
2023/12/09 03:30:27;;;;;;;5.63;4.40;;;10.30;99.90;;;;;;5051558;28;20212;-61
2023/12/09 03:32:54;;;;;;;5.67;4.30;;;10.30;99.90;;;;;;5051230;28;20263;-61
2023/12/09 03:35:21;;;;;;;6.43;4.30;;;10.30;99.90;;;;;;5051281;28;20222;-61
2023/12/09 03:37:48;;;;;;;7.67;3.80;;;10.30;99.90;;;;;;5051107;28;20240;-61
2023/12/09 03:40:15;;;;;;;7.10;3.97;;;10.20;99.90;;;;;;5051021;28;20293;-61
2023/12/09 03:42:41;;;;;;;12.80;4.27;;;10.20;99.90;;;;;;5051282;28;20209;-61
2023/12/09 03:45:09;;;;;;;7.60;4.53;;;10.20;99.90;;;;;;5050834;28;20233;-61
2023/12/09 03:47:37;;;;;;;9.67;4.43;;;10.20;99.90;;;;;;5050859;28;20743;-61
2023/12/09 03:50:03;;;;;;;6.37;4.17;;;10.20;99.90;;;;;;5051064;28;20198;-61
2023/12/09 03:52:30;;;;;;;7.73;4.47;;;10.10;99.90;;;;;;5050982;28;20252;-61
2023/12/09 03:54:57;;;;;;;7.70;5.03;;;10.00;99.90;;;;;;5050792;28;20298;-61
2023/12/09 03:57:24;;;;;;;9.17;5.00;;;9.90;99.90;;;;;;5051191;28;20205;-61
2023/12/09 03:59:50;;;;;;;8.27;5.17;;;9.90;99.90;;;;;;5050993;28;20292;-61
2023/12/09 04:02:18;;;;;;;9.63;4.80;;;9.70;99.90;;;;;;5050538;28;20209;-61
2023/12/09 04:04:46;;;;;;;8.13;5.00;;;9.60;99.90;;;;;;5050783;28;20287;-61
2023/12/09 04:07:13;;;;;;;8.17;5.50;;;9.40;99.90;;;;;;5050705;28;20218;-61
2023/12/09 04:09:40;;;;;;;6.23;4.83;;;9.40;99.90;;;;;;5050994;28;20312;-61
2023/12/09 04:12:07;;;;;;;8.13;4.67;;;9.20;99.90;;;;;;5050778;28;20210;-62
2023/12/09 04:14:34;;;;;;;7.40;4.93;;;9.10;99.90;;;;;;5050910;28;20221;-63
2023/12/09 04:17:01;;;;;;;6.93;4.80;;;8.90;99.90;;;;;;5050758;28;20300;-61
2023/12/09 04:19:28;;;;;;;8.57;4.87;;;8.80;99.90;;;;;;5050678;28;20220;-61
2023/12/09 04:21:56;;;;;;;11.17;5.50;;;8.60;99.90;;;;;;5050564;28;20698;-62
2023/12/09 04:24:23;;;;;;;8.80;4.87;;;8.30;99.90;;;;;;5074504;22;20257;-57
2023/12/09 04:26:49;;;;;;;8.07;5.03;;;8.10;99.90;;;;;;5042235;28;20627;-57
2023/12/09 04:29:16;;;;;;;8.70;4.77;;;8.00;99.90;;;;;;5038908;28;20202;-55
2023/12/09 04:31:43;;;;;;;8.43;4.83;;;7.90;99.90;;;;;;5038884;28;20202;-56
2023/12/09 04:34:10;;;;;;;7.43;5.10;;;7.90;99.90;;;;;;5041383;28;20224;-56
2023/12/09 04:36:37;;;;;;;6.23;4.67;;;7.80;99.90;;;;;;5042366;28;20206;-57
2023/12/09 04:39:05;;;;;;;7.67;4.60;;;7.80;99.90;;;;;;5040693;28;20697;-56
2023/12/09 04:41:32;;;;;;;9.50;5.43;;;7.80;99.90;;;;;;5039112;28;20300;-56
2023/12/09 04:43:58;;;;;;;9.17;4.70;;;7.70;99.90;;;;;;5039387;28;20283;-56
2023/12/09 04:46:25;;;;;;;10.53;4.67;;;7.70;99.90;;;;;;5042206;28;20213;-56
2023/12/09 04:48:52;;;;;;;6.00;4.50;;;7.70;99.90;;;;;;5042252;28;20216;-56
2023/12/09 04:51:18;;;;;;;8.10;5.00;;;7.80;99.90;;;;;;5038839;28;20199;-57
2023/12/09 04:53:45;;;;;;;7.10;5.17;;;7.70;99.90;;;;;;5038799;28;20222;-56
2023/12/09 04:56:13;;;;;;;9.33;5.20;;;7.70;99.90;;;;;;5041091;28;20212;-55
2023/12/09 04:58:40;;;;;;;9.53;5.77;;;7.70;99.90;;;;;;5042007;28;20228;-57
2023/12/09 05:01:06;;;;;;;8.43;5.63;;;7.70;99.90;;;;;;5040177;28;20225;-56
2023/12/09 05:03:33;;;;;;;8.37;6.23;;;7.70;99.90;;;;;;5038416;28;20214;-56
2023/12/09 05:06:00;;;;;;;8.07;5.53;;;7.90;99.90;;;;;;5039390;28;20293;-56
2023/12/09 05:08:27;;;;;;;7.63;5.07;;;8.00;99.90;;;;;;5041835;28;20289;-56
2023/12/09 05:10:54;;;;;;;6.97;5.20;;;8.20;99.90;;;;;;5041826;28;20210;-56
2023/12/09 05:13:22;;;;;;;6.60;4.90;;;8.40;99.90;;;;;;5038576;28;20217;-56
2023/12/09 05:15:49;;;;;;;9.17;5.47;;;8.50;99.90;;;;;;5040609;28;20631;-56
2023/12/09 05:18:16;;;;;;;6.70;4.80;;;8.50;99.90;;;;;;5044575;28;20300;-56
2023/12/09 05:20:43;;;;;;;6.93;4.67;;;8.50;99.90;;;;;;5045582;28;20221;-55
2023/12/09 05:23:10;;;;;;;8.17;4.57;;;8.60;99.90;;;;;;5043112;28;20206;-56
2023/12/09 05:25:37;;;;;;;7.47;4.50;;;8.60;99.90;;;;;;5041567;28;20276;-56
2023/12/09 05:28:04;;;;;;;5.87;5.17;;;8.60;99.90;;;;;;5042719;28;20561;-56
2023/12/09 05:30:32;;;;;;;7.30;4.73;;;8.60;99.90;;;;;;5045138;28;20573;-56
2023/12/09 05:32:59;;;;;;;6.93;5.13;;;8.70;99.90;;;;;;5044814;28;20209;-56
2023/12/09 05:35:25;;;;;;;8.53;5.43;;;8.70;99.90;;;;;;5041832;28;20276;-56
2023/12/09 05:37:52;;;;;;;10.33;4.80;;;8.60;99.90;;;;;;5041624;28;20213;-56
2023/12/09 05:40:19;;;;;;;8.70;5.43;;;8.60;99.90;;;;;;5044673;28;20201;-56
2023/12/09 05:42:46;;;;;;;6.37;4.60;;;8.60;99.90;;;;;;5045029;28;20675;-56
2023/12/09 05:45:12;;;;;;;7.17;5.13;;;8.70;99.90;;;;;;5042300;28;20253;-54
2023/12/09 05:47:40;;;;;;;10.17;5.20;;;8.70;99.90;;;;;;5041341;28;20622;-56
2023/12/09 05:50:09;;;;;;;7.07;4.40;;;8.70;99.90;;;;;;5042955;28;20218;-56
2023/12/09 05:52:36;;;;;;;6.50;4.50;;;8.80;99.90;;;;;;5044848;28;20263;-56
2023/12/09 05:55:03;;;;;;;7.23;5.00;;;8.80;99.90;;;;;;5043734;28;20229;-55
2023/12/09 05:57:29;;;;;;;8.67;5.13;;;8.80;99.90;;;;;;5040984;28;20202;-56
2023/12/09 05:59:56;;;;;;;7.57;5.17;;;8.80;99.90;;;;;;5041220;28;20587;-54
2023/12/09 06:02:23;;;;;;;9.20;5.47;;;8.80;99.90;;;;;;5044500;28;20641;-55
2023/12/09 06:04:50;;;;;;;8.30;4.50;;;8.80;99.90;;;;;;5044767;28;20641;-56
2023/12/09 06:07:17;;;;;;;9.67;5.17;;;8.60;99.90;;;;;;5041508;28;20742;-56
2023/12/09 06:09:44;;;;;;;8.20;5.80;;;8.40;99.90;;;;;;5041082;28;20249;-56
2023/12/09 06:12:11;;;;;;;6.37;4.57;;;8.30;99.90;;;;;;5042651;28;20610;-55
2023/12/09 06:14:37;;;;;;;6.73;4.70;;;8.20;99.90;;;;;;5044603;28;20228;-55
2023/12/09 06:17:04;;;;;;;7.47;5.10;;;8.20;99.90;;;;;;5043438;28;20658;-56
2023/12/09 06:19:31;;;;;;;6.10;5.00;;;8.10;99.90;;;;;;5040914;28;20206;-56
2023/12/09 06:21:59;;;;;;;7.50;5.53;;;8.20;99.90;;;;;;5040807;28;20226;-56
2023/12/09 06:24:25;;;;;;;11.40;7.37;;;8.20;99.90;;;;;;5044004;28;20224;-55
2023/12/09 06:26:53;;;;;;;9.13;5.67;;;8.20;99.90;;;;;;5043775;28;20592;-56
2023/12/09 06:29:20;;;;;;;7.27;5.03;;;8.20;99.90;;;;;;5041011;28;20233;-56
2023/12/09 06:31:46;;;;;;;7.43;5.20;;;8.30;99.90;;;;;;5040956;28;20233;-55
2023/12/09 06:34:13;;;;;;;6.67;5.10;;;8.30;99.90;;;;;;5049021;28;20301;-56
2023/12/09 06:36:39;;;;;;;7.10;5.17;;;8.20;99.90;;;;;;5040722;28;20199;-56
2023/12/09 06:39:08;;;;;;;6.80;5.03;;;8.20;99.90;;;;;;5041598;28;20203;-56
2023/12/09 06:41:39;;;;;;;6.87;4.97;;;8.20;99.90;;;;;;5043857;28;20226;-56
2023/12/09 06:44:05;;;;;;;8.07;4.63;;;8.20;99.90;;;;;;5042915;28;20229;-56
2023/12/09 06:46:32;;;;;;;8.07;5.00;;;8.20;99.90;;;;;;5040563;28;20256;-55
2023/12/09 06:48:58;;;;;;;6.10;4.57;;;8.20;99.90;;;;;;5040358;28;20261;-54
2023/12/09 06:51:25;;;;;;;7.93;4.80;;;8.30;99.90;;;;;;5043774;28;20197;-55
2023/12/09 06:53:52;;;;;;;6.63;5.00;;;8.30;99.90;;;;;;5043534;28;20275;-55
2023/12/09 06:56:20;;;;;;;6.93;4.80;;;8.40;99.90;;;;;;5040830;28;20208;-55
2023/12/09 06:58:47;;;;;;;5.57;4.63;;;8.40;99.90;;;;;;5046918;28;20209;-55
2023/12/09 07:01:20;;;;;;;6.30;3.97;;;8.40;99.90;;;;;;5041294;28;20222;-54
2023/12/09 07:03:47;;;;;;;8.30;4.60;;;8.50;99.90;;;;;;5040174;28;20601;-55
2023/12/09 07:06:14;;;;;;;5.00;3.97;;;8.60;99.90;;;;;;5042096;28;20210;-56
2023/12/09 07:08:40;;;;;;;9.80;4.10;;;8.70;99.90;;;;;;5043166;28;20675;-55
2023/12/09 07:11:09;;;;;;;5.90;4.10;;;8.80;99.90;;;;;;5042061;28;20232;-55
2023/12/09 07:13:38;;;;;;;4.93;3.37;;;8.90;99.90;;;;;;5039746;28;20626;-56
2023/12/09 07:16:06;;;;;;;7.50;4.10;;;9.00;99.90;;;;;;5040914;28;20213;-53
2023/12/09 07:18:33;;;;;;;6.37;4.07;;;9.10;99.90;;;;;;5043039;28;20201;-55
2023/12/09 07:20:59;;;;;;;6.93;3.37;;;9.20;99.90;;;;;;5042873;28;20216;-55
2023/12/09 07:23:26;;;;;;;9.33;3.20;;;9.30;99.90;;;;;;5039641;28;20214;-56
2023/12/09 07:25:53;;;;;;;5.93;3.30;;;9.40;99.90;;;;;;5039873;28;20293;-55
2023/12/09 07:28:19;;;;;;;4.90;3.20;;;9.50;99.90;;;;;;5042390;28;20202;-55
2023/12/09 07:30:47;;;;;;;5.47;3.53;;;9.60;99.90;;;;;;5043034;28;20451;-55
2023/12/09 07:33:14;;;;;;;6.40;2.90;;;9.70;99.90;;;;;;5041230;28;20201;-56
2023/12/09 07:35:42;;;;;;;4.53;2.97;;;9.80;99.90;;;;;;5039332;28;20304;-54
2023/12/09 07:38:09;;;;;;;5.67;2.80;;;9.90;99.90;;;;;;5039765;28;20214;-55
2023/12/09 07:40:36;;;;;;;3.93;2.87;;;9.90;99.90;;;;;;5043011;28;20209;-55
2023/12/09 07:43:02;;;;;;;6.60;2.83;;;9.90;99.90;;;;;;5042062;28;20228;-55
2023/12/09 07:45:28;;;;;;;7.80;2.90;;;10.10;99.90;;;;;;5039419;28;20222;-57
2023/12/09 07:47:56;;;;;;;9.43;3.30;;;10.20;99.90;;;;;;5039212;28;20218;-55
2023/12/09 07:50:23;;;;;;;7.60;3.40;;;10.30;99.90;;;;;;5042765;28;20209;-55
2023/12/09 07:52:50;;;;;;;7.03;3.73;;;10.40;99.90;;;;;;5042917;28;20206;-54
2023/12/09 07:55:16;;;;;;;9.03;4.50;;;10.30;99.90;;;;;;5040211;28;20651;-56
2023/12/09 07:57:43;;;;;;;13.03;4.67;;;10.40;99.90;;;;;;5039270;28;20214;-55
2023/12/09 08:00:11;;;;;;;8.43;4.30;;;10.30;99.90;;;;;;5040957;28;20202;-55
2023/12/09 08:02:38;;;;;;;10.60;4.23;;;10.30;99.90;;;;;;5042433;28;20322;-55
2023/12/09 08:05:07;;;;;;;9.17;3.40;;;10.40;99.90;;;;;;5041760;28;20313;-56
2023/12/09 08:07:33;;;;;;;5.80;2.83;;;10.40;99.90;;;;;;5038799;28;20687;-55
2023/12/09 08:10:00;;;;;;;6.30;3.47;;;10.50;99.90;;;;;;5038820;28;20206;-55
2023/12/09 08:12:27;;;;;;;5.27;3.03;;;10.50;99.90;;;;;;5042715;28;20201;-54
2023/12/09 08:14:54;;;;;;;4.40;2.80;;;10.60;99.90;;;;;;5042501;28;20287;-55
2023/12/09 08:17:21;;;;;;;7.93;2.37;;;10.70;99.90;;;;;;5040155;28;20215;-56
2023/12/09 08:19:47;;;;;;;4.97;2.17;;;10.70;99.90;;;;;;5038917;28;20206;-52
2023/12/09 08:22:15;;;;;;;5.43;2.20;;;10.80;99.90;;;;;;5040878;28;20222;-56
2023/12/09 08:24:42;;;;;;;4.83;1.70;;;10.90;99.90;;;;;;5042372;28;20232;-54
2023/12/09 08:27:09;;;;;;;9.93;2.13;;;10.90;99.90;;;;;;5041267;28;20263;-55
2023/12/09 08:29:36;;;;;;;5.60;2.00;;;10.90;99.90;;;;;;5038463;28;20206;-53
2023/12/09 08:32:03;;;;;;;6.33;3.80;;;11.00;99.90;;;;;;5039212;28;20289;-60
2023/12/09 08:34:30;;;;;;;3.63;2.27;;;10.90;99.90;;;;;;5042537;28;20222;-65
2023/12/09 08:36:57;;;;;;;7.60;2.80;;;10.60;99.90;;;;;;5042435;28;20288;-65
2023/12/09 08:39:25;;;;;;;7.57;2.67;;;10.30;99.90;;;;;;5039439;28;20695;-66
2023/12/09 08:41:51;;;;;;;4.07;2.33;;;10.00;99.90;;;;;;5039991;28;20253;-65
2023/12/09 08:44:18;;;;;;;5.67;2.53;;;9.90;99.90;;;;;;5041483;28;20237;-66
2023/12/09 08:46:45;;;;;;;4.13;2.73;;;9.80;99.90;;;;;;5042628;28;20562;-66
2023/12/09 08:49:13;;;;;;;3.83;2.77;;;10.10;99.90;;;;;;5042297;28;20212;-65
2023/12/09 08:51:46;;;;;;;6.77;2.40;;;10.20;99.90;;;;;;5042989;28;20213;-66
2023/12/09 08:54:13;;;;;;;6.73;2.50;;;10.40;99.90;;;;;;5044460;28;20233;-66
2023/12/09 08:56:41;;;;;;;3.33;2.23;;;10.60;99.90;;;;;;5046544;28;20201;-66
2023/12/09 08:59:10;;;;;;;5.97;2.13;;;10.90;99.90;;;;;;5045440;28;20206;-66
2023/12/09 09:01:37;;;;;;;5.37;2.60;;;11.00;99.90;;;;;;5042890;28;20617;-66
2023/12/09 09:04:04;;;;;;;3.63;2.70;;;11.00;99.90;;;;;;5051150;28;20229;-66
2023/12/09 09:06:31;;;;;;;5.20;2.70;;;11.10;99.90;;;;;;5042754;28;20202;-67
2023/12/09 09:08:57;;;;;;;5.70;2.70;;;11.20;99.90;;;;;;5042584;28;20203;-67
2023/12/09 09:11:24;;;;;;;4.70;2.50;;;11.30;99.90;;;;;;5045317;28;20203;-59
2023/12/09 09:13:52;;;;;;;4.67;2.40;;;11.20;99.90;;;;;;5045810;28;20233;-55
2023/12/09 09:16:19;;;;;;;5.07;2.60;;;11.30;99.90;;;;;;5043419;28;20209;-55
2023/12/09 09:18:45;;;;;;;4.87;2.97;;;11.10;99.90;;;;;;5042401;28;20209;-56
2023/12/09 09:21:12;;;;;;;3.97;2.40;;;11.20;99.90;;;;;;5043389;28;20671;-58
2023/12/09 09:23:39;;;;;;;3.60;2.40;;;11.30;99.90;;;;;;5045145;28;20222;-56
2023/12/09 09:26:07;;;;;;;4.90;2.90;;;11.50;99.90;;;;;;5044943;28;20212;-55
2023/12/09 09:28:33;;;;;;;4.37;3.00;;;11.40;99.90;;;;;;5046502;28;20201;-57
2023/12/09 09:31:01;;;;;;;4.77;2.30;;;11.60;99.90;;;;;;5045501;28;20255;-57
2023/12/09 09:33:28;;;;;;;6.70;2.67;;;11.70;99.90;;;;;;5041992;28;20195;-54
2023/12/09 09:35:55;;;;;;;4.23;2.20;;;11.90;99.90;;;;;;5041705;28;20206;-56
2023/12/09 09:38:22;;;;;;;5.93;1.90;;;12.00;99.90;;;;;;5044149;28;20202;-55
2023/12/09 09:40:50;;;;;;;4.90;2.07;;;12.10;99.90;;;;;;5045307;28;20222;-55
2023/12/09 09:43:21;;;;;;;6.07;2.20;;;12.00;99.90;;;;;;5043125;28;20229;-56
2023/12/09 09:45:48;;;;;;;5.53;2.60;;;12.00;99.90;;;;;;5047712;28;20209;-56
2023/12/09 09:48:17;;;;;;;5.23;2.33;;;12.10;99.90;;;;;;5042958;28;20213;-56
2023/12/09 09:50:47;;;;;;;5.30;1.90;;;12.10;99.90;;;;;;5041277;28;20206;-55
2023/12/09 09:53:16;;;;;;;6.67;2.10;;;12.00;99.90;;;;;;5042899;28;20202;-56
2023/12/09 09:55:43;;;;;;;7.00;2.43;;;11.90;99.90;;;;;;5044800;28;20218;-56
2023/12/09 09:58:10;;;;;;;6.43;2.17;;;11.80;99.90;;;;;;5043594;28;20205;-56
2023/12/09 10:00:38;;;;;;;3.83;2.10;;;11.70;99.90;;;;;;5040377;28;20684;-56
2023/12/09 10:03:05;;;;;;;6.67;2.03;;;11.70;99.90;;;;;;5041143;28;20226;-56
2023/12/09 10:05:33;;;;;;;5.50;2.23;;;11.60;99.90;;;;;;5044517;28;20783;-56
2023/12/09 10:08:00;;;;;;;2.63;1.60;;;11.60;99.90;;;;;;5044587;28;20229;-55
2023/12/09 10:10:29;;;;;;;3.87;1.53;;;11.60;99.90;;;;;;5041288;28;20332;-56
2023/12/09 10:12:56;;;;;;;3.23;1.47;;;11.70;99.90;;;;;;5038888;28;20203;-58
2023/12/09 10:15:22;;;;;;;3.10;1.50;;;11.70;99.90;;;;;;5039407;28;20222;-58
2023/12/09 10:17:49;;;;;;;2.30;1.37;;;11.70;99.90;;;;;;5038133;28;20206;-58
2023/12/09 10:20:16;;;;;;;1.97;1.30;;;11.70;99.90;;;;;;5042483;28;20217;-58
2023/12/09 10:22:46;;;;;;;18.30;9.90;;;11.60;99.90;;;;;;5040451;28;20225;-57
2023/12/09 10:25:22;;;;;;;224.40;103.70;;;11.60;99.90;;;;;;5097676;23;20271;-66
2023/12/09 10:27:49;;;;;;;12.27;6.33;;;11.60;99.90;;;;;;5092768;28;20203;-67
2023/12/09 10:30:18;;;;;;;6.33;2.20;;;11.60;99.90;;;;;;5092677;28;20216;-64
2023/12/09 10:32:45;;;;;;;7.23;1.93;;;11.60;99.90;;;;;;5092640;28;20330;-66
2023/12/09 10:35:12;;;;;;;6.07;2.30;;;11.60;99.90;;;;;;5084450;28;20232;-66
2023/12/09 10:37:39;;;;;;;2.90;1.53;;;11.70;99.90;;;;;;5073243;28;20204;-61
2023/12/09 10:40:10;;;;;;;3.77;1.60;;;11.60;99.90;;;;;;5071991;28;20385;-62
2023/12/09 10:42:37;;;;;;;3.83;2.00;;;11.60;99.90;;;;;;5071620;28;20235;-66
2023/12/09 10:45:05;;;;;;;6.40;2.60;;;11.60;99.90;;;;;;5072087;28;20287;-66
2023/12/09 10:47:31;;;;;;;3.00;1.67;;;11.70;99.90;;;;;;5064371;28;20205;-63
2023/12/09 10:49:58;;;;;;;5.03;1.77;;;11.70;99.90;;;;;;5072185;28;20702;-60
2023/12/09 10:52:25;;;;;;;2.47;1.60;;;11.80;99.90;;;;;;5072024;28;20580;-65
2023/12/09 10:54:52;;;;;;;3.00;1.53;;;11.80;99.90;;;;;;5071706;28;20698;-65
2023/12/09 10:57:20;;;;;;;5.43;1.67;;;11.80;99.90;;;;;;5071939;28;20594;-64
2023/12/09 10:59:47;;;;;;;4.73;1.87;;;11.90;99.90;;;;;;5071693;28;20208;-64
2023/12/09 11:02:15;;;;;;;2.13;1.43;;;12.10;99.90;;;;;;5071971;28;20205;-66
2023/12/09 11:04:43;;;;;;;3.47;1.80;;;12.20;99.90;;;;;;5072200;28;20256;-65
2023/12/09 11:07:11;;;;;;;3.00;2.17;;;12.30;99.90;;;;;;5071589;28;20236;-61
2023/12/09 11:09:38;;;;;;;1.77;1.30;;;12.20;99.90;;;;;;5071071;28;20211;-65
2023/12/09 11:12:05;;;;;;;2.07;1.30;;;12.30;99.90;;;;;;5071763;28;20208;-65
2023/12/09 11:14:34;;;;;;;3.17;1.50;;;12.40;99.90;;;;;;5069595;28;20237;-64
2023/12/09 11:17:01;;;;;;;2.07;1.40;;;12.50;99.90;;;;;;5070929;28;20208;-66
2023/12/09 11:19:27;;;;;;;4.30;1.40;;;12.60;99.90;;;;;;5071358;28;20288;-62
2023/12/09 11:21:54;;;;;;;1.30;1.17;;;12.70;99.90;;;;;;5070998;28;20299;-63
2023/12/09 11:24:21;;;;;;;1.53;1.30;;;12.80;99.90;;;;;;5071554;28;20433;-64
2023/12/09 11:26:48;;;;;;;1.83;1.30;;;12.80;99.90;;;;;;5071244;28;20236;-63
2023/12/09 11:29:17;;;;;;;3.30;2.30;;;12.70;99.90;;;;;;5071653;28;20236;-63
2023/12/09 11:31:48;;;;;;;2.67;1.97;;;12.60;99.90;;;;;;5071372;28;20205;-63
2023/12/09 11:34:16;;;;;;;1.60;1.30;;;12.50;99.90;;;;;;5070750;28;20604;-63
2023/12/09 11:36:44;;;;;;;3.07;2.10;;;12.50;99.90;;;;;;5071573;28;20212;-63
2023/12/09 11:39:13;;;;;;;6.07;2.60;;;12.40;99.90;;;;;;5071082;28;20217;-66
2023/12/09 11:41:41;;;;;;;2.40;1.70;;;12.40;99.90;;;;;;5071667;28;20228;-65
2023/12/09 11:44:09;;;;;;;2.20;2.00;;;12.30;99.90;;;;;;5071034;28;20225;-66
2023/12/09 11:46:36;;;;;;;2.87;2.27;;;12.40;99.90;;;;;;5071616;28;20274;-66
2023/12/09 11:49:06;;;;;;;2.03;1.80;;;12.40;99.90;;;;;;5070513;28;20217;-66
2023/12/09 11:51:34;;;;;;;3.10;2.10;;;12.40;99.90;;;;;;5069691;28;20558;-66
2023/12/09 11:54:04;;;;;;;2.87;1.93;;;12.40;99.90;;;;;;5069768;28;20229;-64
2023/12/09 11:56:31;;;;;;;4.07;2.60;;;12.40;99.90;;;;;;5071583;28;20201;-64
2023/12/09 11:58:58;;;;;;;2.53;2.00;;;12.20;99.90;;;;;;5071225;28;20208;-65
2023/12/09 12:01:27;;;;;;;2.87;1.93;;;12.10;99.90;;;;;;5071020;28;20212;-59
2023/12/09 12:03:54;;;;;;;2.17;1.90;;;12.20;99.90;;;;;;5071274;28;20324;-58
2023/12/09 12:06:24;;;;;;;3.53;2.20;;;12.30;99.90;;;;;;5070547;28;20213;-58
2023/12/09 12:08:52;;;;;;;4.03;2.23;;;12.30;99.90;;;;;;5071356;28;20295;-59
2023/12/09 12:11:21;;;;;;;2.43;1.90;;;12.30;99.90;;;;;;5071312;28;20204;-58
2023/12/09 12:13:48;;;;;;;2.77;2.00;;;12.30;99.90;;;;;;5071171;28;20661;-59
2023/12/09 12:16:15;;;;;;;2.67;2.00;;;12.30;99.90;;;;;;5071348;28;20220;-59
2023/12/09 12:18:41;;;;;;;2.47;2.17;;;12.40;99.90;;;;;;5069439;28;20205;-64
2023/12/09 12:21:08;;;;;;;4.40;2.30;;;12.40;99.90;;;;;;5070677;28;20709;-62
2023/12/09 12:23:36;;;;;;;3.87;2.17;;;12.20;99.90;;;;;;5072203;28;20225;-62
2023/12/09 12:26:03;;;;;;;3.63;2.30;;;12.10;99.90;;;;;;5074901;28;20233;-63
2023/12/09 12:28:30;;;;;;;3.93;2.20;;;12.10;99.90;;;;;;5075571;28;20208;-62
2023/12/09 12:30:59;;;;;;;2.80;2.13;;;12.10;99.90;;;;;;5075615;28;20228;-60
2023/12/09 12:33:27;;;;;;;3.57;2.20;;;12.10;99.90;;;;;;5074266;28;20684;-63
2023/12/09 12:35:54;;;;;;;2.40;1.50;;;12.10;99.90;;;;;;5076050;28;20228;-62
2023/12/09 12:38:23;;;;;;;2.70;1.90;;;11.90;99.90;;;;;;5076234;28;20221;-60
2023/12/09 12:40:51;;;;;;;2.30;1.57;;;12.00;99.90;;;;;;5075438;28;20204;-61
2023/12/09 12:43:18;;;;;;;2.33;1.63;;;12.10;99.90;;;;;;5072995;28;20744;-63
2023/12/09 12:45:47;;;;;;;3.63;2.63;;;12.10;99.90;;;;;;5075199;28;20282;-63
2023/12/09 12:48:13;;;;;;;2.53;1.60;;;12.00;99.90;;;;;;5072808;28;20216;-65